sensor_id;sensor_type;location;lat;lon;timestamp;temperature;humidity
4908;DHT22;64375;51.540;7.364;2022-12-29T00:01:14;16.40;96.50
4908;DHT22;64375;51.540;7.364;2022-12-29T00:03:48;16.40;96.50
4908;DHT22;64375;51.540;7.364;2022-12-29T00:06:19;16.40;96.40
4908;DHT22;64375;51.540;7.364;2022-12-29T00:08:53;16.40;96.40
4908;DHT22;64375;51.540;7.364;2022-12-29T00:11:26;16.40;96.30
4908;DHT22;64375;51.540;7.364;2022-12-29T00:13:54;16.40;96.50
4908;DHT22;64375;51.540;7.364;2022-12-29T00:16:49;16.40;96.40
4908;DHT22;64375;51.540;7.364;2022-12-29T00:19:23;16.40;96.50
4908;DHT22;64375;51.540;7.364;2022-12-29T00:22:11;16.40;96.60
4908;DHT22;64375;51.540;7.364;2022-12-29T00:25:01;16.30;96.50
4908;DHT22;64375;51.540;7.364;2022-12-29T00:27:52;16.40;96.50
4908;DHT22;64375;51.540;7.364;2022-12-29T00:30:44;16.40;96.60
4908;DHT22;64375;51.540;7.364;2022-12-29T00:33:39;16.40;96.50
4908;DHT22;64375;51.540;7.364;2022-12-29T00:36:33;16.40;96.50
4908;DHT22;64375;51.540;7.364;2022-12-29T00:39:07;16.30;96.60
4908;DHT22;64375;51.540;7.364;2022-12-29T00:42:05;16.30;96.60
4908;DHT22;64375;51.540;7.364;2022-12-29T00:45:04;16.30;96.60
4908;DHT22;64375;51.540;7.364;2022-12-29T00:47:46;16.30;96.50
4908;DHT22;64375;51.540;7.364;2022-12-29T00:50:16;16.30;96.50
4908;DHT22;64375;51.540;7.364;2022-12-29T00:52:43;16.30;96.50
4908;DHT22;64375;51.540;7.364;2022-12-29T00:55:13;16.30;96.60
4908;DHT22;64375;51.540;7.364;2022-12-29T00:57:50;16.30;96.60
4908;DHT22;64375;51.540;7.364;2022-12-29T01:00:30;16.30;96.70
4908;DHT22;64375;51.540;7.364;2022-12-29T01:03:06;16.30;96.80
4908;DHT22;64375;51.540;7.364;2022-12-29T01:05:36;16.30;96.80
4908;DHT22;64375;51.540;7.364;2022-12-29T01:08:09;16.30;96.70
4908;DHT22;64375;51.540;7.364;2022-12-29T01:10:41;16.30;96.80
4908;DHT22;64375;51.540;7.364;2022-12-29T01:13:11;16.30;96.70
4908;DHT22;64375;51.540;7.364;2022-12-29T01:15:49;16.30;96.70
4908;DHT22;64375;51.540;7.364;2022-12-29T01:18:26;16.30;96.80
4908;DHT22;64375;51.540;7.364;2022-12-29T01:21:05;16.30;96.90
4908;DHT22;64375;51.540;7.364;2022-12-29T01:23:39;16.30;96.80
4908;DHT22;64375;51.540;7.364;2022-12-29T01:26:19;16.30;96.80
4908;DHT22;64375;51.540;7.364;2022-12-29T01:28:51;16.30;96.70
4908;DHT22;64375;51.540;7.364;2022-12-29T01:31:25;16.30;96.80
4908;DHT22;64375;51.540;7.364;2022-12-29T01:33:56;16.30;96.80
4908;DHT22;64375;51.540;7.364;2022-12-29T01:36:37;16.30;96.70
4908;DHT22;64375;51.540;7.364;2022-12-29T01:39:10;16.30;96.80
4908;DHT22;64375;51.540;7.364;2022-12-29T01:41:39;16.30;96.80
4908;DHT22;64375;51.540;7.364;2022-12-29T01:47:13;16.30;96.90
4908;DHT22;64375;51.540;7.364;2022-12-29T01:49:41;16.30;97.00
4908;DHT22;64375;51.540;7.364;2022-12-29T01:52:09;16.30;96.90
4908;DHT22;64375;51.540;7.364;2022-12-29T01:54:48;16.30;96.90
4908;DHT22;64375;51.540;7.364;2022-12-29T01:57:19;16.30;97.00
4908;DHT22;64375;51.540;7.364;2022-12-29T01:59:59;16.30;96.90
4908;DHT22;64375;51.540;7.364;2022-12-29T02:02:28;16.30;96.90
4908;DHT22;64375;51.540;7.364;2022-12-29T02:05:04;16.30;96.90
4908;DHT22;64375;51.540;7.364;2022-12-29T02:07:39;16.20;96.90
4908;DHT22;64375;51.540;7.364;2022-12-29T02:10:14;16.20;96.80
4908;DHT22;64375;51.540;7.364;2022-12-29T02:12:45;16.20;96.90
4908;DHT22;64375;51.540;7.364;2022-12-29T02:15:17;16.20;96.90
4908;DHT22;64375;51.540;7.364;2022-12-29T02:18:14;16.20;96.80
4908;DHT22;64375;51.540;7.364;2022-12-29T02:24:21;16.20;96.80
4908;DHT22;64375;51.540;7.364;2022-12-29T02:27:22;16.20;96.80
4908;DHT22;64375;51.540;7.364;2022-12-29T02:30:28;16.20;96.90
4908;DHT22;64375;51.540;7.364;2022-12-29T02:33:01;16.20;96.80
4908;DHT22;64375;51.540;7.364;2022-12-29T02:35:41;16.20;96.80
4908;DHT22;64375;51.540;7.364;2022-12-29T02:38:46;16.20;96.80
4908;DHT22;64375;51.540;7.364;2022-12-29T02:41:45;16.10;97.00
4908;DHT22;64375;51.540;7.364;2022-12-29T02:44:26;16.20;97.00
4908;DHT22;64375;51.540;7.364;2022-12-29T02:47:05;16.10;96.80
4908;DHT22;64375;51.540;7.364;2022-12-29T02:49:49;16.10;96.80
4908;DHT22;64375;51.540;7.364;2022-12-29T02:52:26;16.20;96.80
4908;DHT22;64375;51.540;7.364;2022-12-29T02:55:04;16.20;96.80
4908;DHT22;64375;51.540;7.364;2022-12-29T02:57:48;16.20;96.70
4908;DHT22;64375;51.540;7.364;2022-12-29T03:00:22;16.20;96.60
4908;DHT22;64375;51.540;7.364;2022-12-29T03:03:20;16.20;96.70
4908;DHT22;64375;51.540;7.364;2022-12-29T03:06:09;16.20;96.80
4908;DHT22;64375;51.540;7.364;2022-12-29T03:08:47;16.20;96.70
4908;DHT22;64375;51.540;7.364;2022-12-29T03:11:23;16.20;96.60
4908;DHT22;64375;51.540;7.364;2022-12-29T03:14:17;16.20;96.60
4908;DHT22;64375;51.540;7.364;2022-12-29T03:17:11;16.20;96.70
4908;DHT22;64375;51.540;7.364;2022-12-29T03:19:51;16.10;96.70
4908;DHT22;64375;51.540;7.364;2022-12-29T03:22:26;16.10;96.60
4908;DHT22;64375;51.540;7.364;2022-12-29T03:25:01;16.10;96.70
4908;DHT22;64375;51.540;7.364;2022-12-29T03:27:33;16.20;96.70
4908;DHT22;64375;51.540;7.364;2022-12-29T03:30:04;16.20;96.70
4908;DHT22;64375;51.540;7.364;2022-12-29T03:32:36;16.20;96.60
4908;DHT22;64375;51.540;7.364;2022-12-29T03:35:11;16.10;96.60
4908;DHT22;64375;51.540;7.364;2022-12-29T03:37:50;16.10;96.70
4908;DHT22;64375;51.540;7.364;2022-12-29T03:40:23;16.20;96.70
4908;DHT22;64375;51.540;7.364;2022-12-29T03:42:56;16.20;96.60
4908;DHT22;64375;51.540;7.364;2022-12-29T03:45:25;16.20;96.50
4908;DHT22;64375;51.540;7.364;2022-12-29T03:47:56;16.20;96.70
4908;DHT22;64375;51.540;7.364;2022-12-29T03:50:32;16.20;96.70
4908;DHT22;64375;51.540;7.364;2022-12-29T03:53:00;16.20;96.60
4908;DHT22;64375;51.540;7.364;2022-12-29T03:55:38;16.20;96.50
4908;DHT22;64375;51.540;7.364;2022-12-29T03:58:09;16.20;96.60
4908;DHT22;64375;51.540;7.364;2022-12-29T04:00:40;16.20;96.70
4908;DHT22;64375;51.540;7.364;2022-12-29T04:03:23;16.20;96.70
4908;DHT22;64375;51.540;7.364;2022-12-29T04:06:00;16.20;96.70
4908;DHT22;64375;51.540;7.364;2022-12-29T04:08:28;16.20;96.80
4908;DHT22;64375;51.540;7.364;2022-12-29T04:11:01;16.20;96.80
4908;DHT22;64375;51.540;7.364;2022-12-29T04:13:34;16.20;96.40
4908;DHT22;64375;51.540;7.364;2022-12-29T04:16:02;16.20;96.80
4908;DHT22;64375;51.540;7.364;2022-12-29T04:18:30;16.20;96.80
4908;DHT22;64375;51.540;7.364;2022-12-29T04:20:59;16.20;96.80
4908;DHT22;64375;51.540;7.364;2022-12-29T04:23:27;16.30;96.90
4908;DHT22;64375;51.540;7.364;2022-12-29T04:25:55;16.30;96.90
4908;DHT22;64375;51.540;7.364;2022-12-29T04:28:23;16.40;96.80
4908;DHT22;64375;51.540;7.364;2022-12-29T04:30:54;16.50;96.90
4908;DHT22;64375;51.540;7.364;2022-12-29T04:33:25;16.60;96.80
4908;DHT22;64375;51.540;7.364;2022-12-29T04:35:53;16.60;96.60
4908;DHT22;64375;51.540;7.364;2022-12-29T04:38:25;16.60;96.70
4908;DHT22;64375;51.540;7.364;2022-12-29T04:40:53;16.70;96.70
4908;DHT22;64375;51.540;7.364;2022-12-29T04:43:21;16.70;96.60
4908;DHT22;64375;51.540;7.364;2022-12-29T04:45:58;16.70;96.50
4908;DHT22;64375;51.540;7.364;2022-12-29T04:48:29;16.80;96.40
4908;DHT22;64375;51.540;7.364;2022-12-29T04:51:00;16.80;96.30
4908;DHT22;64375;51.540;7.364;2022-12-29T04:53:30;16.70;96.30
4908;DHT22;64375;51.540;7.364;2022-12-29T04:56:04;16.70;96.30
4908;DHT22;64375;51.540;7.364;2022-12-29T04:58:33;16.70;96.20
4908;DHT22;64375;51.540;7.364;2022-12-29T05:01:01;16.70;96.20
4908;DHT22;64375;51.540;7.364;2022-12-29T05:03:32;16.60;96.10
4908;DHT22;64375;51.540;7.364;2022-12-29T05:06:00;16.60;96.20
4908;DHT22;64375;51.540;7.364;2022-12-29T05:08:29;16.60;96.20
4908;DHT22;64375;51.540;7.364;2022-12-29T05:11:00;16.50;96.30
4908;DHT22;64375;51.540;7.364;2022-12-29T05:13:31;16.40;95.80
4908;DHT22;64375;51.540;7.364;2022-12-29T05:15:59;16.40;96.40
4908;DHT22;64375;51.540;7.364;2022-12-29T05:18:27;16.40;96.30
4908;DHT22;64375;51.540;7.364;2022-12-29T05:20:55;16.50;96.30
4908;DHT22;64375;51.540;7.364;2022-12-29T05:23:22;16.60;96.10
4908;DHT22;64375;51.540;7.364;2022-12-29T05:26:00;16.70;96.20
4908;DHT22;64375;51.540;7.364;2022-12-29T05:28:28;16.80;95.80
4908;DHT22;64375;51.540;7.364;2022-12-29T05:30:56;16.90;95.80
4908;DHT22;64375;51.540;7.364;2022-12-29T05:33:27;16.90;95.60
4908;DHT22;64375;51.540;7.364;2022-12-29T05:36:06;17.00;95.50
4908;DHT22;64375;51.540;7.364;2022-12-29T05:38:35;17.00;95.40
4908;DHT22;64375;51.540;7.364;2022-12-29T05:41:04;17.00;95.30
4908;DHT22;64375;51.540;7.364;2022-12-29T05:43:32;17.00;95.30
4908;DHT22;64375;51.540;7.364;2022-12-29T05:46:04;17.00;95.30
4908;DHT22;64375;51.540;7.364;2022-12-29T05:48:31;17.00;95.40
4908;DHT22;64375;51.540;7.364;2022-12-29T05:51:13;17.10;95.50
4908;DHT22;64375;51.540;7.364;2022-12-29T05:53:44;17.00;95.50
4908;DHT22;64375;51.540;7.364;2022-12-29T05:56:13;17.00;95.30
4908;DHT22;64375;51.540;7.364;2022-12-29T05:58:41;17.00;95.30
4908;DHT22;64375;51.540;7.364;2022-12-29T06:01:09;17.10;95.40
4908;DHT22;64375;51.540;7.364;2022-12-29T06:03:37;17.00;95.20
4908;DHT22;64375;51.540;7.364;2022-12-29T06:06:13;16.90;95.10
4908;DHT22;64375;51.540;7.364;2022-12-29T06:08:42;16.70;95.60
4908;DHT22;64375;51.540;7.364;2022-12-29T06:11:10;16.70;95.90
4908;DHT22;64375;51.540;7.364;2022-12-29T06:13:40;16.70;95.60
4908;DHT22;64375;51.540;7.364;2022-12-29T06:16:09;16.80;96.10
4908;DHT22;64375;51.540;7.364;2022-12-29T06:18:37;16.70;95.40
4908;DHT22;64375;51.540;7.364;2022-12-29T06:21:05;16.70;96.10
4908;DHT22;64375;51.540;7.364;2022-12-29T06:23:33;16.80;96.00
4908;DHT22;64375;51.540;7.364;2022-12-29T06:26:01;16.80;96.10
4908;DHT22;64375;51.540;7.364;2022-12-29T06:28:29;16.90;96.20
4908;DHT22;64375;51.540;7.364;2022-12-29T06:30:59;16.90;96.30
4908;DHT22;64375;51.540;7.364;2022-12-29T06:33:29;16.90;95.20
4908;DHT22;64375;51.540;7.364;2022-12-29T06:35:57;16.90;95.70
4908;DHT22;64375;51.540;7.364;2022-12-29T06:38:25;16.90;96.30
4908;DHT22;64375;51.540;7.364;2022-12-29T06:40:53;17.10;96.20
4908;DHT22;64375;51.540;7.364;2022-12-29T06:43:21;17.10;96.00
4908;DHT22;64375;51.540;7.364;2022-12-29T06:45:49;17.10;95.80
4908;DHT22;64375;51.540;7.364;2022-12-29T06:48:19;17.10;96.00
4908;DHT22;64375;51.540;7.364;2022-12-29T06:50:47;17.20;95.30
4908;DHT22;64375;51.540;7.364;2022-12-29T06:53:15;17.10;95.40
4908;DHT22;64375;51.540;7.364;2022-12-29T06:55:43;17.00;95.90
4908;DHT22;64375;51.540;7.364;2022-12-29T06:58:11;17.00;94.20
4908;DHT22;64375;51.540;7.364;2022-12-29T07:00:39;17.10;95.90
4908;DHT22;64375;51.540;7.364;2022-12-29T07:03:07;17.20;95.90
4908;DHT22;64375;51.540;7.364;2022-12-29T07:05:37;17.20;95.90
4908;DHT22;64375;51.540;7.364;2022-12-29T07:08:05;17.00;94.90
4908;DHT22;64375;51.540;7.364;2022-12-29T07:10:33;16.90;94.50
4908;DHT22;64375;51.540;7.364;2022-12-29T07:13:01;16.80;95.10
4908;DHT22;64375;51.540;7.364;2022-12-29T07:15:29;16.80;95.10
4908;DHT22;64375;51.540;7.364;2022-12-29T07:17:57;16.70;95.20
4908;DHT22;64375;51.540;7.364;2022-12-29T07:20:25;16.80;95.40
4908;DHT22;64375;51.540;7.364;2022-12-29T07:22:55;17.00;95.40
4908;DHT22;64375;51.540;7.364;2022-12-29T07:25:23;17.10;95.20
4908;DHT22;64375;51.540;7.364;2022-12-29T07:27:51;17.10;95.20
4908;DHT22;64375;51.540;7.364;2022-12-29T07:30:19;17.20;95.20
4908;DHT22;64375;51.540;7.364;2022-12-29T07:32:47;17.20;95.20
4908;DHT22;64375;51.540;7.364;2022-12-29T07:35:16;17.30;95.00
4908;DHT22;64375;51.540;7.364;2022-12-29T07:37:44;17.30;95.20
4908;DHT22;64375;51.540;7.364;2022-12-29T07:40:14;17.30;95.10
4908;DHT22;64375;51.540;7.364;2022-12-29T07:42:42;17.30;95.10
4908;DHT22;64375;51.540;7.364;2022-12-29T07:45:10;17.40;95.10
4908;DHT22;64375;51.540;7.364;2022-12-29T07:47:38;17.30;95.20
4908;DHT22;64375;51.540;7.364;2022-12-29T07:50:07;17.40;95.10
4908;DHT22;64375;51.540;7.364;2022-12-29T07:52:35;17.30;95.10
4908;DHT22;64375;51.540;7.364;2022-12-29T07:55:03;17.40;95.30
4908;DHT22;64375;51.540;7.364;2022-12-29T07:57:33;17.30;95.30
4908;DHT22;64375;51.540;7.364;2022-12-29T08:00:02;17.30;95.40
4908;DHT22;64375;51.540;7.364;2022-12-29T08:02:30;17.20;95.20
4908;DHT22;64375;51.540;7.364;2022-12-29T08:04:59;17.20;95.30
4908;DHT22;64375;51.540;7.364;2022-12-29T08:07:27;17.20;95.20
4908;DHT22;64375;51.540;7.364;2022-12-29T08:09:55;17.20;95.30
4908;DHT22;64375;51.540;7.364;2022-12-29T08:12:23;17.10;94.90
4908;DHT22;64375;51.540;7.364;2022-12-29T08:14:53;17.10;95.40
4908;DHT22;64375;51.540;7.364;2022-12-29T08:17:21;17.10;95.20
4908;DHT22;64375;51.540;7.364;2022-12-29T08:19:50;17.10;95.30
4908;DHT22;64375;51.540;7.364;2022-12-29T08:22:18;16.90;94.50
4908;DHT22;64375;51.540;7.364;2022-12-29T08:24:46;16.40;94.10
4908;DHT22;64375;51.540;7.364;2022-12-29T08:27:15;16.30;94.20
4908;DHT22;64375;51.540;7.364;2022-12-29T08:29:47;16.10;94.70
4908;DHT22;64375;51.540;7.364;2022-12-29T08:32:17;15.80;93.80
4908;DHT22;64375;51.540;7.364;2022-12-29T08:34:45;15.90;94.30
4908;DHT22;64375;51.540;7.364;2022-12-29T08:37:13;16.10;95.30
4908;DHT22;64375;51.540;7.364;2022-12-29T08:39:41;16.40;95.80
4908;DHT22;64375;51.540;7.364;2022-12-29T08:42:09;16.60;95.70
4908;DHT22;64375;51.540;7.364;2022-12-29T08:44:38;16.80;95.90
4908;DHT22;64375;51.540;7.364;2022-12-29T08:47:06;16.80;96.10
4908;DHT22;64375;51.540;7.364;2022-12-29T08:49:36;16.90;96.10
4908;DHT22;64375;51.540;7.364;2022-12-29T08:52:04;17.00;96.80
4908;DHT22;64375;51.540;7.364;2022-12-29T08:54:33;17.00;96.70
4908;DHT22;64375;51.540;7.364;2022-12-29T08:57:01;17.10;96.50
4908;DHT22;64375;51.540;7.364;2022-12-29T08:59:29;17.10;96.60
4908;DHT22;64375;51.540;7.364;2022-12-29T09:01:57;16.90;97.00
4908;DHT22;64375;51.540;7.364;2022-12-29T09:04:25;17.00;97.30
4908;DHT22;64375;51.540;7.364;2022-12-29T09:06:55;17.10;97.10
4908;DHT22;64375;51.540;7.364;2022-12-29T09:09:23;17.20;97.20
4908;DHT22;64375;51.540;7.364;2022-12-29T09:11:51;17.20;96.60
4908;DHT22;64375;51.540;7.364;2022-12-29T09:14:19;17.10;97.10
4908;DHT22;64375;51.540;7.364;2022-12-29T09:16:50;17.20;97.40
4908;DHT22;64375;51.540;7.364;2022-12-29T09:19:36;17.20;97.40
4908;DHT22;64375;51.540;7.364;2022-12-29T09:22:06;17.20;94.50
4908;DHT22;64375;51.540;7.364;2022-12-29T09:24:34;17.20;97.00
4908;DHT22;64375;51.540;7.364;2022-12-29T09:27:08;17.20;97.30
4908;DHT22;64375;51.540;7.364;2022-12-29T09:29:36;17.20;97.00
4908;DHT22;64375;51.540;7.364;2022-12-29T09:32:10;17.30;97.20
4908;DHT22;64375;51.540;7.364;2022-12-29T09:34:44;17.30;97.30
4908;DHT22;64375;51.540;7.364;2022-12-29T09:37:14;17.50;97.20
4908;DHT22;64375;51.540;7.364;2022-12-29T09:39:45;17.50;97.00
4908;DHT22;64375;51.540;7.364;2022-12-29T09:42:25;17.50;97.30
4908;DHT22;64375;51.540;7.364;2022-12-29T09:45:11;17.60;97.10
4908;DHT22;64375;51.540;7.364;2022-12-29T09:47:42;17.60;97.10
4908;DHT22;64375;51.540;7.364;2022-12-29T09:50:19;17.70;96.90
4908;DHT22;64375;51.540;7.364;2022-12-29T09:52:50;17.70;96.80
4908;DHT22;64375;51.540;7.364;2022-12-29T09:55:22;17.70;96.90
4908;DHT22;64375;51.540;7.364;2022-12-29T09:57:56;17.70;97.00
4908;DHT22;64375;51.540;7.364;2022-12-29T10:00:37;17.70;97.00
4908;DHT22;64375;51.540;7.364;2022-12-29T10:03:14;17.60;97.30
4908;DHT22;64375;51.540;7.364;2022-12-29T10:05:48;17.60;97.60
4908;DHT22;64375;51.540;7.364;2022-12-29T10:08:28;17.60;97.20
4908;DHT22;64375;51.540;7.364;2022-12-29T10:11:06;17.70;97.40
4908;DHT22;64375;51.540;7.364;2022-12-29T10:13:50;17.60;96.90
4908;DHT22;64375;51.540;7.364;2022-12-29T10:16:29;17.70;96.90
4908;DHT22;64375;51.540;7.364;2022-12-29T10:19:09;17.60;97.00
4908;DHT22;64375;51.540;7.364;2022-12-29T10:21:53;17.60;96.80
4908;DHT22;64375;51.540;7.364;2022-12-29T10:24:42;17.60;96.90
4908;DHT22;64375;51.540;7.364;2022-12-29T10:27:13;17.60;97.20
4908;DHT22;64375;51.540;7.364;2022-12-29T10:29:46;17.60;97.40
4908;DHT22;64375;51.540;7.364;2022-12-29T10:32:22;17.60;96.90
4908;DHT22;64375;51.540;7.364;2022-12-29T10:35:11;17.60;97.00
4908;DHT22;64375;51.540;7.364;2022-12-29T10:37:46;17.60;96.80
4908;DHT22;64375;51.540;7.364;2022-12-29T10:40:24;17.60;96.70
4908;DHT22;64375;51.540;7.364;2022-12-29T10:42:55;17.60;97.00
4908;DHT22;64375;51.540;7.364;2022-12-29T10:45:30;17.60;97.00
4908;DHT22;64375;51.540;7.364;2022-12-29T10:48:04;17.60;96.70
4908;DHT22;64375;51.540;7.364;2022-12-29T10:50:44;17.60;96.70
4908;DHT22;64375;51.540;7.364;2022-12-29T10:53:18;17.60;96.90
4908;DHT22;64375;51.540;7.364;2022-12-29T10:55:49;17.60;96.70
4908;DHT22;64375;51.540;7.364;2022-12-29T10:58:20;17.70;96.70
4908;DHT22;64375;51.540;7.364;2022-12-29T11:00:51;17.70;96.90
4908;DHT22;64375;51.540;7.364;2022-12-29T11:03:44;17.70;97.30
4908;DHT22;64375;51.540;7.364;2022-12-29T11:06:26;17.60;97.20
4908;DHT22;64375;51.540;7.364;2022-12-29T11:08:56;17.60;96.90
4908;DHT22;64375;51.540;7.364;2022-12-29T11:11:32;17.60;96.70
4908;DHT22;64375;51.540;7.364;2022-12-29T11:14:14;17.60;97.00
4908;DHT22;64375;51.540;7.364;2022-12-29T11:16:56;17.60;97.50
4908;DHT22;64375;51.540;7.364;2022-12-29T11:19:29;17.60;97.20
4908;DHT22;64375;51.540;7.364;2022-12-29T11:22:21;17.60;95.50
4908;DHT22;64375;51.540;7.364;2022-12-29T11:24:52;17.60;97.10
4908;DHT22;64375;51.540;7.364;2022-12-29T11:27:26;17.60;97.30
4908;DHT22;64375;51.540;7.364;2022-12-29T11:29:57;17.50;95.90
4908;DHT22;64375;51.540;7.364;2022-12-29T11:32:27;17.30;94.90
4908;DHT22;64375;51.540;7.364;2022-12-29T11:35:04;17.30;95.60
4908;DHT22;64375;51.540;7.364;2022-12-29T11:37:37;17.40;95.80
4908;DHT22;64375;51.540;7.364;2022-12-29T11:40:16;17.40;96.00
4908;DHT22;64375;51.540;7.364;2022-12-29T11:42:50;17.40;96.40
4908;DHT22;64375;51.540;7.364;2022-12-29T11:45:23;17.50;96.60
4908;DHT22;64375;51.540;7.364;2022-12-29T11:47:53;17.40;96.70
4908;DHT22;64375;51.540;7.364;2022-12-29T11:50:32;17.50;96.20
4908;DHT22;64375;51.540;7.364;2022-12-29T11:53:20;17.50;96.60
4908;DHT22;64375;51.540;7.364;2022-12-29T11:56:06;17.60;96.70
4908;DHT22;64375;51.540;7.364;2022-12-29T11:58:38;17.60;96.60
4908;DHT22;64375;51.540;7.364;2022-12-29T12:01:10;17.60;95.30
4908;DHT22;64375;51.540;7.364;2022-12-29T12:03:48;17.50;95.90
4908;DHT22;64375;51.540;7.364;2022-12-29T12:06:23;17.50;96.70
4908;DHT22;64375;51.540;7.364;2022-12-29T12:08:54;17.20;95.30
4908;DHT22;64375;51.540;7.364;2022-12-29T12:11:29;17.00;93.80
4908;DHT22;64375;51.540;7.364;2022-12-29T12:14:11;17.10;94.80
4908;DHT22;64375;51.540;7.364;2022-12-29T12:16:55;17.10;95.10
4908;DHT22;64375;51.540;7.364;2022-12-29T12:19:46;17.10;95.10
4908;DHT22;64375;51.540;7.364;2022-12-29T12:22:27;17.20;96.00
4908;DHT22;64375;51.540;7.364;2022-12-29T12:25:03;17.20;96.10
4908;DHT22;64375;51.540;7.364;2022-12-29T12:27:48;17.40;96.40
4908;DHT22;64375;51.540;7.364;2022-12-29T12:30:23;17.40;96.00
4908;DHT22;64375;51.540;7.364;2022-12-29T12:33:00;17.40;96.00
4908;DHT22;64375;51.540;7.364;2022-12-29T12:35:37;17.40;96.30
4908;DHT22;64375;51.540;7.364;2022-12-29T12:38:20;17.40;96.20
4908;DHT22;64375;51.540;7.364;2022-12-29T12:41:00;17.40;95.80
4908;DHT22;64375;51.540;7.364;2022-12-29T12:43:37;17.50;96.20
4908;DHT22;64375;51.540;7.364;2022-12-29T12:46:27;17.50;96.60
4908;DHT22;64375;51.540;7.364;2022-12-29T12:49:28;17.40;96.70
4908;DHT22;64375;51.540;7.364;2022-12-29T12:52:25;17.50;96.60
4908;DHT22;64375;51.540;7.364;2022-12-29T12:55:26;17.40;96.80
4908;DHT22;64375;51.540;7.364;2022-12-29T12:58:03;17.50;96.80
4908;DHT22;64375;51.540;7.364;2022-12-29T13:00:47;17.60;96.40
4908;DHT22;64375;51.540;7.364;2022-12-29T13:03:48;17.60;96.50
4908;DHT22;64375;51.540;7.364;2022-12-29T13:06:26;17.50;96.60
4908;DHT22;64375;51.540;7.364;2022-12-29T13:09:18;17.50;96.10
4908;DHT22;64375;51.540;7.364;2022-12-29T13:12:12;17.50;96.10
4908;DHT22;64375;51.540;7.364;2022-12-29T13:14:52;17.60;96.60
4908;DHT22;64375;51.540;7.364;2022-12-29T13:17:38;17.60;96.30
4908;DHT22;64375;51.540;7.364;2022-12-29T13:20:36;17.70;96.20
4908;DHT22;64375;51.540;7.364;2022-12-29T13:23:13;17.70;95.90
4908;DHT22;64375;51.540;7.364;2022-12-29T13:25:50;17.80;96.20
4908;DHT22;64375;51.540;7.364;2022-12-29T13:28:25;17.80;96.30
4908;DHT22;64375;51.540;7.364;2022-12-29T13:31:02;17.80;95.80
4908;DHT22;64375;51.540;7.364;2022-12-29T13:33:40;17.80;96.30
4908;DHT22;64375;51.540;7.364;2022-12-29T13:36:21;17.80;96.00
4908;DHT22;64375;51.540;7.364;2022-12-29T13:38:54;17.80;96.60
4908;DHT22;64375;51.540;7.364;2022-12-29T13:41:37;17.90;96.70
4908;DHT22;64375;51.540;7.364;2022-12-29T13:44:17;17.90;96.30
4908;DHT22;64375;51.540;7.364;2022-12-29T13:46:47;17.90;96.20
4908;DHT22;64375;51.540;7.364;2022-12-29T13:49:19;18.00;96.30
4908;DHT22;64375;51.540;7.364;2022-12-29T13:51:51;18.00;95.90
4908;DHT22;64375;51.540;7.364;2022-12-29T13:54:37;18.00;96.00
4908;DHT22;64375;51.540;7.364;2022-12-29T13:57:13;17.90;96.30
4908;DHT22;64375;51.540;7.364;2022-12-29T14:00:06;17.90;96.10
4908;DHT22;64375;51.540;7.364;2022-12-29T14:02:59;17.90;96.20
4908;DHT22;64375;51.540;7.364;2022-12-29T14:05:37;17.90;95.50
4908;DHT22;64375;51.540;7.364;2022-12-29T14:08:17;17.90;96.30
4908;DHT22;64375;51.540;7.364;2022-12-29T14:10:51;17.90;96.10
4908;DHT22;64375;51.540;7.364;2022-12-29T14:13:23;17.90;96.30
4908;DHT22;64375;51.540;7.364;2022-12-29T14:15:54;17.90;96.60
4908;DHT22;64375;51.540;7.364;2022-12-29T14:18:43;17.80;95.70
4908;DHT22;64375;51.540;7.364;2022-12-29T14:21:19;17.80;96.20
4908;DHT22;64375;51.540;7.364;2022-12-29T14:23:50;17.80;96.30
4908;DHT22;64375;51.540;7.364;2022-12-29T14:26:34;17.80;95.90
4908;DHT22;64375;51.540;7.364;2022-12-29T14:29:44;17.80;96.00
4908;DHT22;64375;51.540;7.364;2022-12-29T14:32:35;17.80;96.00
4908;DHT22;64375;51.540;7.364;2022-12-29T14:35:48;17.80;96.20
4908;DHT22;64375;51.540;7.364;2022-12-29T14:38:29;17.80;96.40
4908;DHT22;64375;51.540;7.364;2022-12-29T14:41:18;17.90;96.00
4908;DHT22;64375;51.540;7.364;2022-12-29T14:44:16;17.90;96.00
4908;DHT22;64375;51.540;7.364;2022-12-29T14:46:47;17.70;96.40
4908;DHT22;64375;51.540;7.364;2022-12-29T14:49:19;17.80;96.20
4908;DHT22;64375;51.540;7.364;2022-12-29T14:51:49;17.80;96.00
4908;DHT22;64375;51.540;7.364;2022-12-29T14:54:53;17.80;95.80
4908;DHT22;64375;51.540;7.364;2022-12-29T14:57:35;17.80;95.50
4908;DHT22;64375;51.540;7.364;2022-12-29T15:00:23;17.80;95.50
4908;DHT22;64375;51.540;7.364;2022-12-29T15:03:05;17.70;95.10
4908;DHT22;64375;51.540;7.364;2022-12-29T15:05:41;17.70;96.40
4908;DHT22;64375;51.540;7.364;2022-12-29T15:08:11;17.70;96.20
4908;DHT22;64375;51.540;7.364;2022-12-29T15:10:43;17.70;95.50
4908;DHT22;64375;51.540;7.364;2022-12-29T15:13:25;17.80;95.90
4908;DHT22;64375;51.540;7.364;2022-12-29T15:16:24;17.80;95.90
4908;DHT22;64375;51.540;7.364;2022-12-29T15:18:55;17.80;95.80
4908;DHT22;64375;51.540;7.364;2022-12-29T15:21:33;17.90;95.80
4908;DHT22;64375;51.540;7.364;2022-12-29T15:24:16;17.90;95.10
4908;DHT22;64375;51.540;7.364;2022-12-29T15:27:06;17.90;95.50
4908;DHT22;64375;51.540;7.364;2022-12-29T15:29:45;17.80;95.60
4908;DHT22;64375;51.540;7.364;2022-12-29T15:32:19;17.80;95.40
4908;DHT22;64375;51.540;7.364;2022-12-29T15:34:49;17.90;95.40
4908;DHT22;64375;51.540;7.364;2022-12-29T15:37:22;17.80;94.80
4908;DHT22;64375;51.540;7.364;2022-12-29T15:39:55;17.70;95.60
4908;DHT22;64375;51.540;7.364;2022-12-29T15:42:50;17.80;95.30
4908;DHT22;64375;51.540;7.364;2022-12-29T15:45:39;17.80;95.10
4908;DHT22;64375;51.540;7.364;2022-12-29T15:48:15;17.80;95.20
4908;DHT22;64375;51.540;7.364;2022-12-29T15:50:45;17.80;95.20
4908;DHT22;64375;51.540;7.364;2022-12-29T15:53:20;17.80;95.20
4908;DHT22;64375;51.540;7.364;2022-12-29T15:56:00;17.80;95.10
4908;DHT22;64375;51.540;7.364;2022-12-29T15:58:43;17.80;94.90
4908;DHT22;64375;51.540;7.364;2022-12-29T16:01:19;17.80;95.00
4908;DHT22;64375;51.540;7.364;2022-12-29T16:03:52;17.80;95.10
4908;DHT22;64375;51.540;7.364;2022-12-29T16:06:39;17.80;95.20
4908;DHT22;64375;51.540;7.364;2022-12-29T16:09:17;17.80;94.90
4908;DHT22;64375;51.540;7.364;2022-12-29T16:11:47;17.80;95.10
4908;DHT22;64375;51.540;7.364;2022-12-29T16:14:18;17.80;95.10
4908;DHT22;64375;51.540;7.364;2022-12-29T16:16:51;17.80;95.10
4908;DHT22;64375;51.540;7.364;2022-12-29T16:19:25;17.80;94.90
4908;DHT22;64375;51.540;7.364;2022-12-29T16:22:03;17.80;94.90
4908;DHT22;64375;51.540;7.364;2022-12-29T16:24:50;17.80;95.00
4908;DHT22;64375;51.540;7.364;2022-12-29T16:27:21;17.80;94.90
4908;DHT22;64375;51.540;7.364;2022-12-29T16:29:54;17.80;94.70
4908;DHT22;64375;51.540;7.364;2022-12-29T16:32:30;17.80;94.70
4908;DHT22;64375;51.540;7.364;2022-12-29T16:35:17;17.70;94.40
4908;DHT22;64375;51.540;7.364;2022-12-29T16:38:13;17.70;94.60
4908;DHT22;64375;51.540;7.364;2022-12-29T16:40:53;17.70;94.70
4908;DHT22;64375;51.540;7.364;2022-12-29T16:43:25;17.70;94.80
4908;DHT22;64375;51.540;7.364;2022-12-29T16:46:17;17.70;94.80